sensor_id;sensor_type;location;lat;lon;timestamp;P1;durP1;ratioP1;P2;durP2;ratioP2
59006;SDS011;44792;52.760;6.726;2023-09-30T00:01:44;12.50;;;3.38;;
59006;SDS011;44792;52.760;6.726;2023-09-30T00:04:10;14.18;;;3.50;;
59006;SDS011;44792;52.760;6.726;2023-09-30T00:06:36;12.52;;;4.38;;
59006;SDS011;44792;52.760;6.726;2023-09-30T00:09:02;17.75;;;4.28;;
59006;SDS011;44792;52.760;6.726;2023-09-30T00:11:28;10.40;;;3.50;;
59006;SDS011;44792;52.760;6.726;2023-09-30T00:13:54;14.98;;;4.15;;
59006;SDS011;44792;52.760;6.726;2023-09-30T00:16:19;11.88;;;3.33;;
59006;SDS011;44792;52.760;6.726;2023-09-30T00:18:45;11.45;;;2.60;;
59006;SDS011;44792;52.760;6.726;2023-09-30T00:21:11;9.00;;;3.83;;
59006;SDS011;44792;52.760;6.726;2023-09-30T00:23:37;9.75;;;3.42;;
59006;SDS011;44792;52.760;6.726;2023-09-30T00:26:03;14.60;;;3.47;;
59006;SDS011;44792;52.760;6.726;2023-09-30T00:28:28;16.80;;;3.88;;
59006;SDS011;44792;52.760;6.726;2023-09-30T00:30:54;11.95;;;3.20;;
59006;SDS011;44792;52.760;6.726;2023-09-30T00:33:20;11.95;;;3.42;;
59006;SDS011;44792;52.760;6.726;2023-09-30T00:35:46;8.27;;;2.88;;
59006;SDS011;44792;52.760;6.726;2023-09-30T00:38:12;12.40;;;3.58;;
59006;SDS011;44792;52.760;6.726;2023-09-30T00:40:37;12.65;;;3.97;;
59006;SDS011;44792;52.760;6.726;2023-09-30T00:43:03;14.32;;;3.90;;
59006;SDS011;44792;52.760;6.726;2023-09-30T00:45:29;16.85;;;3.38;;
59006;SDS011;44792;52.760;6.726;2023-09-30T00:47:55;14.27;;;3.55;;
59006;SDS011;44792;52.760;6.726;2023-09-30T00:50:21;11.77;;;3.47;;
59006;SDS011;44792;52.760;6.726;2023-09-30T00:52:48;11.93;;;4.10;;
59006;SDS011;44792;52.760;6.726;2023-09-30T00:55:15;10.70;;;3.47;;
59006;SDS011;44792;52.760;6.726;2023-09-30T00:57:41;13.57;;;4.15;;
59006;SDS011;44792;52.760;6.726;2023-09-30T01:00:09;10.82;;;2.90;;
59006;SDS011;44792;52.760;6.726;2023-09-30T01:02:38;13.98;;;3.80;;
59006;SDS011;44792;52.760;6.726;2023-09-30T01:05:06;11.52;;;3.78;;
59006;SDS011;44792;52.760;6.726;2023-09-30T01:07:33;6.90;;;2.90;;
59006;SDS011;44792;52.760;6.726;2023-09-30T01:09:59;12.32;;;3.85;;
59006;SDS011;44792;52.760;6.726;2023-09-30T01:12:26;14.90;;;4.40;;
59006;SDS011;44792;52.760;6.726;2023-09-30T01:14:57;12.98;;;3.92;;
59006;SDS011;44792;52.760;6.726;2023-09-30T01:17:23;7.95;;;3.25;;
59006;SDS011;44792;52.760;6.726;2023-09-30T01:19:49;11.30;;;3.20;;
59006;SDS011;44792;52.760;6.726;2023-09-30T01:22:15;10.57;;;3.15;;
59006;SDS011;44792;52.760;6.726;2023-09-30T01:24:41;13.23;;;3.90;;
59006;SDS011;44792;52.760;6.726;2023-09-30T01:27:10;14.68;;;3.85;;
59006;SDS011;44792;52.760;6.726;2023-09-30T01:29:38;13.82;;;4.50;;
59006;SDS011;44792;52.760;6.726;2023-09-30T01:32:04;7.75;;;3.20;;
59006;SDS011;44792;52.760;6.726;2023-09-30T01:34:34;10.25;;;3.00;;
59006;SDS011;44792;52.760;6.726;2023-09-30T01:37:00;12.00;;;4.20;;
59006;SDS011;44792;52.760;6.726;2023-09-30T01:39:26;12.38;;;3.20;;
59006;SDS011;44792;52.760;6.726;2023-09-30T01:41:52;17.33;;;3.90;;
59006;SDS011;44792;52.760;6.726;2023-09-30T01:44:19;14.48;;;3.88;;
59006;SDS011;44792;52.760;6.726;2023-09-30T01:46:44;13.48;;;5.00;;
59006;SDS011;44792;52.760;6.726;2023-09-30T01:49:10;12.05;;;4.20;;
59006;SDS011;44792;52.760;6.726;2023-09-30T01:51:36;16.95;;;4.22;;
59006;SDS011;44792;52.760;6.726;2023-09-30T01:54:02;11.55;;;3.72;;
59006;SDS011;44792;52.760;6.726;2023-09-30T01:56:28;10.40;;;3.53;;
59006;SDS011;44792;52.760;6.726;2023-09-30T01:58:55;12.13;;;3.33;;
59006;SDS011;44792;52.760;6.726;2023-09-30T02:01:20;10.65;;;3.60;;
59006;SDS011;44792;52.760;6.726;2023-09-30T02:03:46;14.77;;;3.88;;
59006;SDS011;44792;52.760;6.726;2023-09-30T02:11:03;12.07;;;3.20;;
59006;SDS011;44792;52.760;6.726;2023-09-30T02:13:33;12.77;;;3.92;;
59006;SDS011;44792;52.760;6.726;2023-09-30T02:16:00;13.65;;;4.50;;
59006;SDS011;44792;52.760;6.726;2023-09-30T02:18:26;15.45;;;3.88;;
59006;SDS011;44792;52.760;6.726;2023-09-30T02:20:52;13.02;;;3.70;;
59006;SDS011;44792;52.760;6.726;2023-09-30T02:23:18;12.77;;;3.92;;
59006;SDS011;44792;52.760;6.726;2023-09-30T02:25:44;11.48;;;3.30;;
59006;SDS011;44792;52.760;6.726;2023-09-30T02:28:10;13.18;;;4.00;;
59006;SDS011;44792;52.760;6.726;2023-09-30T02:30:36;10.77;;;3.33;;
59006;SDS011;44792;52.760;6.726;2023-09-30T02:33:02;12.65;;;4.18;;
59006;SDS011;44792;52.760;6.726;2023-09-30T02:35:29;14.95;;;4.78;;
59006;SDS011;44792;52.760;6.726;2023-09-30T02:37:55;10.45;;;4.80;;
59006;SDS011;44792;52.760;6.726;2023-09-30T02:40:21;9.63;;;3.67;;
59006;SDS011;44792;52.760;6.726;2023-09-30T02:42:49;12.00;;;4.05;;
59006;SDS011;44792;52.760;6.726;2023-09-30T02:45:16;17.00;;;4.40;;
59006;SDS011;44792;52.760;6.726;2023-09-30T02:47:42;15.82;;;4.60;;
59006;SDS011;44792;52.760;6.726;2023-09-30T02:50:09;14.13;;;4.00;;
59006;SDS011;44792;52.760;6.726;2023-09-30T02:52:38;15.60;;;4.70;;
59006;SDS011;44792;52.760;6.726;2023-09-30T02:55:06;17.27;;;4.50;;
59006;SDS011;44792;52.760;6.726;2023-09-30T02:57:36;13.70;;;4.70;;
59006;SDS011;44792;52.760;6.726;2023-09-30T03:00:05;15.45;;;5.22;;
59006;SDS011;44792;52.760;6.726;2023-09-30T03:02:53;19.70;;;4.57;;
59006;SDS011;44792;52.760;6.726;2023-09-30T03:05:20;13.40;;;4.07;;
59006;SDS011;44792;52.760;6.726;2023-09-30T03:07:46;16.05;;;4.88;;
59006;SDS011;44792;52.760;6.726;2023-09-30T03:10:13;14.38;;;4.32;;
59006;SDS011;44792;52.760;6.726;2023-09-30T03:12:45;14.77;;;3.72;;
59006;SDS011;44792;52.760;6.726;2023-09-30T03:15:14;11.77;;;4.68;;
59006;SDS011;44792;52.760;6.726;2023-09-30T03:17:40;13.60;;;4.38;;
59006;SDS011;44792;52.760;6.726;2023-09-30T03:20:06;14.77;;;4.10;;
59006;SDS011;44792;52.760;6.726;2023-09-30T03:22:36;8.35;;;3.65;;
59006;SDS011;44792;52.760;6.726;2023-09-30T03:25:12;12.88;;;5.43;;
59006;SDS011;44792;52.760;6.726;2023-09-30T03:27:40;11.00;;;4.10;;
59006;SDS011;44792;52.760;6.726;2023-09-30T03:30:06;10.88;;;5.35;;
59006;SDS011;44792;52.760;6.726;2023-09-30T03:32:33;11.25;;;4.05;;
59006;SDS011;44792;52.760;6.726;2023-09-30T03:35:03;13.10;;;4.80;;
59006;SDS011;44792;52.760;6.726;2023-09-30T03:37:33;11.07;;;3.70;;
59006;SDS011;44792;52.760;6.726;2023-09-30T03:39:59;13.35;;;5.50;;
59006;SDS011;44792;52.760;6.726;2023-09-30T03:42:37;11.13;;;5.03;;
59006;SDS011;44792;52.760;6.726;2023-09-30T03:45:04;13.20;;;4.63;;
59006;SDS011;44792;52.760;6.726;2023-09-30T03:47:34;12.77;;;5.15;;
59006;SDS011;44792;52.760;6.726;2023-09-30T03:50:01;14.70;;;4.25;;
59006;SDS011;44792;52.760;6.726;2023-09-30T03:52:29;17.35;;;5.20;;
59006;SDS011;44792;52.760;6.726;2023-09-30T03:54:58;16.77;;;6.25;;
59006;SDS011;44792;52.760;6.726;2023-09-30T03:57:24;15.38;;;4.43;;
59006;SDS011;44792;52.760;6.726;2023-09-30T03:59:50;12.85;;;4.25;;
59006;SDS011;44792;52.760;6.726;2023-09-30T04:02:18;8.68;;;3.83;;
59006;SDS011;44792;52.760;6.726;2023-09-30T04:04:44;11.68;;;4.80;;
59006;SDS011;44792;52.760;6.726;2023-09-30T04:07:11;12.88;;;4.88;;
59006;SDS011;44792;52.760;6.726;2023-09-30T04:09:37;13.65;;;4.57;;
59006;SDS011;44792;52.760;6.726;2023-09-30T04:12:03;11.60;;;4.35;;
59006;SDS011;44792;52.760;6.726;2023-09-30T04:14:29;12.63;;;4.50;;
59006;SDS011;44792;52.760;6.726;2023-09-30T04:16:55;13.07;;;5.03;;
59006;SDS011;44792;52.760;6.726;2023-09-30T04:19:20;8.15;;;4.15;;
59006;SDS011;44792;52.760;6.726;2023-09-30T04:21:47;12.18;;;4.60;;
59006;SDS011;44792;52.760;6.726;2023-09-30T04:24:13;11.48;;;4.88;;
59006;SDS011;44792;52.760;6.726;2023-09-30T04:26:38;11.25;;;4.60;;
59006;SDS011;44792;52.760;6.726;2023-09-30T04:29:05;14.55;;;4.18;;
59006;SDS011;44792;52.760;6.726;2023-09-30T04:31:33;10.63;;;3.95;;
59006;SDS011;44792;52.760;6.726;2023-09-30T04:33:58;11.30;;;4.60;;
59006;SDS011;44792;52.760;6.726;2023-09-30T04:36:24;12.95;;;4.43;;
59006;SDS011;44792;52.760;6.726;2023-09-30T04:38:50;13.10;;;4.90;;
59006;SDS011;44792;52.760;6.726;2023-09-30T04:41:15;15.43;;;4.75;;
59006;SDS011;44792;52.760;6.726;2023-09-30T04:43:41;11.10;;;4.38;;
59006;SDS011;44792;52.760;6.726;2023-09-30T04:46:08;13.50;;;6.03;;
59006;SDS011;44792;52.760;6.726;2023-09-30T04:48:34;11.93;;;4.50;;
59006;SDS011;44792;52.760;6.726;2023-09-30T04:51:00;17.77;;;5.00;;
59006;SDS011;44792;52.760;6.726;2023-09-30T04:53:30;10.52;;;4.13;;
59006;SDS011;44792;52.760;6.726;2023-09-30T04:55:55;12.32;;;4.95;;
59006;SDS011;44792;52.760;6.726;2023-09-30T04:58:21;11.63;;;4.95;;
59006;SDS011;44792;52.760;6.726;2023-09-30T05:00:49;10.35;;;4.70;;
59006;SDS011;44792;52.760;6.726;2023-09-30T05:03:14;10.90;;;4.93;;
59006;SDS011;44792;52.760;6.726;2023-09-30T05:05:40;14.82;;;5.20;;
59006;SDS011;44792;52.760;6.726;2023-09-30T05:08:06;12.50;;;5.75;;
59006;SDS011;44792;52.760;6.726;2023-09-30T05:10:32;10.68;;;4.82;;
59006;SDS011;44792;52.760;6.726;2023-09-30T05:12:58;12.68;;;5.35;;
59006;SDS011;44792;52.760;6.726;2023-09-30T05:15:24;15.30;;;5.85;;
59006;SDS011;44792;52.760;6.726;2023-09-30T05:17:50;14.70;;;6.00;;
59006;SDS011;44792;52.760;6.726;2023-09-30T05:20:17;12.52;;;5.50;;
59006;SDS011;44792;52.760;6.726;2023-09-30T05:22:43;15.45;;;5.82;;
59006;SDS011;44792;52.760;6.726;2023-09-30T05:25:15;20.20;;;7.03;;
59006;SDS011;44792;52.760;6.726;2023-09-30T05:27:41;20.05;;;5.93;;
59006;SDS011;44792;52.760;6.726;2023-09-30T05:30:08;12.40;;;6.00;;
59006;SDS011;44792;52.760;6.726;2023-09-30T05:32:36;12.38;;;5.32;;
59006;SDS011;44792;52.760;6.726;2023-09-30T05:35:04;20.23;;;6.43;;
59006;SDS011;44792;52.760;6.726;2023-09-30T05:37:31;9.10;;;4.68;;
59006;SDS011;44792;52.760;6.726;2023-09-30T05:39:57;11.20;;;5.18;;
59006;SDS011;44792;52.760;6.726;2023-09-30T05:42:23;11.55;;;6.03;;
59006;SDS011;44792;52.760;6.726;2023-09-30T05:44:49;13.95;;;5.40;;
59006;SDS011;44792;52.760;6.726;2023-09-30T05:47:15;13.40;;;5.50;;
59006;SDS011;44792;52.760;6.726;2023-09-30T05:49:41;10.80;;;5.55;;
59006;SDS011;44792;52.760;6.726;2023-09-30T05:52:06;11.05;;;5.60;;
59006;SDS011;44792;52.760;6.726;2023-09-30T05:54:32;15.70;;;6.30;;
59006;SDS011;44792;52.760;6.726;2023-09-30T05:56:58;12.07;;;5.47;;
59006;SDS011;44792;52.760;6.726;2023-09-30T05:59:25;13.20;;;5.78;;
59006;SDS011;44792;52.760;6.726;2023-09-30T06:01:53;9.68;;;5.38;;
59006;SDS011;44792;52.760;6.726;2023-09-30T06:04:18;11.30;;;5.15;;
59006;SDS011;44792;52.760;6.726;2023-09-30T06:06:44;10.98;;;5.65;;
59006;SDS011;44792;52.760;6.726;2023-09-30T06:09:10;11.88;;;5.18;;
59006;SDS011;44792;52.760;6.726;2023-09-30T06:11:36;12.15;;;5.88;;
59006;SDS011;44792;52.760;6.726;2023-09-30T06:14:02;10.73;;;5.68;;
59006;SDS011;44792;52.760;6.726;2023-09-30T06:16:31;12.85;;;5.18;;
59006;SDS011;44792;52.760;6.726;2023-09-30T06:18:57;9.30;;;5.13;;
59006;SDS011;44792;52.760;6.726;2023-09-30T06:21:24;13.65;;;5.85;;
59006;SDS011;44792;52.760;6.726;2023-09-30T06:23:54;12.43;;;5.85;;
59006;SDS011;44792;52.760;6.726;2023-09-30T06:26:20;9.98;;;5.85;;
59006;SDS011;44792;52.760;6.726;2023-09-30T06:28:46;15.07;;;5.88;;
59006;SDS011;44792;52.760;6.726;2023-09-30T06:31:13;9.95;;;4.97;;
59006;SDS011;44792;52.760;6.726;2023-09-30T06:33:40;13.73;;;5.75;;
59006;SDS011;44792;52.760;6.726;2023-09-30T06:36:13;13.52;;;5.80;;
59006;SDS011;44792;52.760;6.726;2023-09-30T06:41:07;10.70;;;5.70;;
59006;SDS011;44792;52.760;6.726;2023-09-30T06:43:33;13.00;;;6.30;;
59006;SDS011;44792;52.760;6.726;2023-09-30T06:46:05;13.05;;;6.68;;
59006;SDS011;44792;52.760;6.726;2023-09-30T06:48:38;20.35;;;7.35;;
59006;SDS011;44792;52.760;6.726;2023-09-30T06:51:07;12.93;;;6.57;;
59006;SDS011;44792;52.760;6.726;2023-09-30T06:53:38;15.35;;;6.65;;
59006;SDS011;44792;52.760;6.726;2023-09-30T06:56:06;12.27;;;6.40;;
59006;SDS011;44792;52.760;6.726;2023-09-30T06:58:33;21.35;;;7.75;;
59006;SDS011;44792;52.760;6.726;2023-09-30T07:00:59;12.43;;;6.85;;
59006;SDS011;44792;52.760;6.726;2023-09-30T07:03:24;16.50;;;6.78;;
59006;SDS011;44792;52.760;6.726;2023-09-30T07:05:50;14.13;;;7.18;;
59006;SDS011;44792;52.760;6.726;2023-09-30T07:08:17;16.40;;;6.97;;
59006;SDS011;44792;52.760;6.726;2023-09-30T07:10:43;15.82;;;7.20;;
59006;SDS011;44792;52.760;6.726;2023-09-30T07:13:11;17.30;;;8.02;;
59006;SDS011;44792;52.760;6.726;2023-09-30T07:15:37;17.23;;;7.32;;
59006;SDS011;44792;52.760;6.726;2023-09-30T07:18:03;17.42;;;7.43;;
59006;SDS011;44792;52.760;6.726;2023-09-30T07:20:29;17.73;;;8.20;;
59006;SDS011;44792;52.760;6.726;2023-09-30T07:22:58;20.83;;;8.15;;
59006;SDS011;44792;52.760;6.726;2023-09-30T07:25:25;19.33;;;8.25;;
59006;SDS011;44792;52.760;6.726;2023-09-30T07:27:51;13.95;;;7.70;;
59006;SDS011;44792;52.760;6.726;2023-09-30T07:30:17;17.85;;;8.05;;
59006;SDS011;44792;52.760;6.726;2023-09-30T07:32:43;21.83;;;9.23;;
59006;SDS011;44792;52.760;6.726;2023-09-30T07:35:09;15.27;;;8.27;;
59006;SDS011;44792;52.760;6.726;2023-09-30T07:37:36;18.00;;;7.90;;
59006;SDS011;44792;52.760;6.726;2023-09-30T07:40:03;19.67;;;7.70;;
59006;SDS011;44792;52.760;6.726;2023-09-30T07:42:30;19.15;;;8.52;;
59006;SDS011;44792;52.760;6.726;2023-09-30T07:44:56;18.58;;;8.40;;
59006;SDS011;44792;52.760;6.726;2023-09-30T07:47:21;18.30;;;8.20;;
59006;SDS011;44792;52.760;6.726;2023-09-30T07:49:48;15.13;;;8.20;;
59006;SDS011;44792;52.760;6.726;2023-09-30T07:52:13;16.13;;;7.97;;
59006;SDS011;44792;52.760;6.726;2023-09-30T07:54:40;17.77;;;8.38;;
59006;SDS011;44792;52.760;6.726;2023-09-30T07:57:06;17.90;;;8.85;;
59006;SDS011;44792;52.760;6.726;2023-09-30T07:59:31;16.27;;;8.27;;
59006;SDS011;44792;52.760;6.726;2023-09-30T08:01:58;17.48;;;7.65;;
59006;SDS011;44792;52.760;6.726;2023-09-30T08:04:25;19.20;;;7.97;;
59006;SDS011;44792;52.760;6.726;2023-09-30T08:06:51;18.35;;;8.50;;
59006;SDS011;44792;52.760;6.726;2023-09-30T08:09:16;20.90;;;8.13;;
59006;SDS011;44792;52.760;6.726;2023-09-30T08:11:43;16.83;;;8.10;;
59006;SDS011;44792;52.760;6.726;2023-09-30T08:14:09;17.90;;;7.88;;
59006;SDS011;44792;52.760;6.726;2023-09-30T08:16:35;13.32;;;8.55;;
59006;SDS011;44792;52.760;6.726;2023-09-30T08:19:02;17.92;;;8.38;;
59006;SDS011;44792;52.760;6.726;2023-09-30T08:21:28;17.60;;;9.25;;
59006;SDS011;44792;52.760;6.726;2023-09-30T08:23:55;20.92;;;8.48;;
59006;SDS011;44792;52.760;6.726;2023-09-30T08:26:20;16.63;;;8.23;;
59006;SDS011;44792;52.760;6.726;2023-09-30T08:28:46;13.27;;;8.25;;
59006;SDS011;44792;52.760;6.726;2023-09-30T08:31:12;16.17;;;9.75;;
59006;SDS011;44792;52.760;6.726;2023-09-30T08:33:39;16.23;;;7.30;;
59006;SDS011;44792;52.760;6.726;2023-09-30T08:36:06;19.65;;;9.05;;
59006;SDS011;44792;52.760;6.726;2023-09-30T08:38:36;21.65;;;10.13;;
59006;SDS011;44792;52.760;6.726;2023-09-30T08:41:03;21.58;;;9.05;;
59006;SDS011;44792;52.760;6.726;2023-09-30T08:43:29;15.50;;;8.70;;
59006;SDS011;44792;52.760;6.726;2023-09-30T08:46:01;19.50;;;9.45;;
59006;SDS011;44792;52.760;6.726;2023-09-30T08:48:27;20.45;;;8.93;;
59006;SDS011;44792;52.760;6.726;2023-09-30T08:50:55;16.75;;;8.85;;
59006;SDS011;44792;52.760;6.726;2023-09-30T08:53:23;21.00;;;9.52;;
59006;SDS011;44792;52.760;6.726;2023-09-30T08:55:52;17.88;;;8.85;;
59006;SDS011;44792;52.760;6.726;2023-09-30T08:58:23;15.32;;;8.38;;
59006;SDS011;44792;52.760;6.726;2023-09-30T09:00:51;22.08;;;8.77;;
59006;SDS011;44792;52.760;6.726;2023-09-30T09:03:20;16.27;;;9.48;;
59006;SDS011;44792;52.760;6.726;2023-09-30T09:05:46;16.50;;;8.65;;
59006;SDS011;44792;52.760;6.726;2023-09-30T09:08:25;20.10;;;8.48;;
59006;SDS011;44792;52.760;6.726;2023-09-30T09:10:55;16.05;;;8.50;;
59006;SDS011;44792;52.760;6.726;2023-09-30T09:13:23;23.55;;;10.32;;
59006;SDS011;44792;52.760;6.726;2023-09-30T09:15:49;17.80;;;8.77;;
59006;SDS011;44792;52.760;6.726;2023-09-30T09:18:33;17.92;;;8.85;;
59006;SDS011;44792;52.760;6.726;2023-09-30T09:21:19;20.17;;;8.38;;
59006;SDS011;44792;52.760;6.726;2023-09-30T09:23:48;38.67;;;9.73;;
59006;SDS011;44792;52.760;6.726;2023-09-30T09:26:30;19.73;;;8.75;;
59006;SDS011;44792;52.760;6.726;2023-09-30T09:29:01;19.63;;;9.20;;
59006;SDS011;44792;52.760;6.726;2023-09-30T09:31:31;30.17;;;9.10;;
59006;SDS011;44792;52.760;6.726;2023-09-30T09:34:02;27.00;;;9.30;;
59006;SDS011;44792;52.760;6.726;2023-09-30T09:36:39;26.83;;;8.68;;
59006;SDS011;44792;52.760;6.726;2023-09-30T09:39:06;20.10;;;8.30;;
59006;SDS011;44792;52.760;6.726;2023-09-30T09:41:32;21.05;;;9.40;;
59006;SDS011;44792;52.760;6.726;2023-09-30T09:43:58;23.60;;;9.43;;
59006;SDS011;44792;52.760;6.726;2023-09-30T09:46:25;23.58;;;8.25;;
59006;SDS011;44792;52.760;6.726;2023-09-30T09:48:52;18.50;;;8.52;;
59006;SDS011;44792;52.760;6.726;2023-09-30T09:51:20;19.85;;;8.73;;
59006;SDS011;44792;52.760;6.726;2023-09-30T09:53:46;15.98;;;7.53;;
59006;SDS011;44792;52.760;6.726;2023-09-30T09:56:14;14.50;;;7.72;;
59006;SDS011;44792;52.760;6.726;2023-09-30T09:58:42;17.88;;;8.20;;
59006;SDS011;44792;52.760;6.726;2023-09-30T10:01:09;21.60;;;8.45;;
59006;SDS011;44792;52.760;6.726;2023-09-30T10:03:35;17.15;;;8.60;;
59006;SDS011;44792;52.760;6.726;2023-09-30T10:06:03;17.73;;;8.25;;
59006;SDS011;44792;52.760;6.726;2023-09-30T10:08:40;17.77;;;8.30;;
59006;SDS011;44792;52.760;6.726;2023-09-30T10:11:07;16.13;;;7.43;;
59006;SDS011;44792;52.760;6.726;2023-09-30T10:13:53;21.48;;;7.25;;
59006;SDS011;44792;52.760;6.726;2023-09-30T10:19:14;17.17;;;7.45;;
59006;SDS011;44792;52.760;6.726;2023-09-30T10:22:19;19.55;;;8.18;;
59006;SDS011;44792;52.760;6.726;2023-09-30T10:24:41;16.48;;;6.72;;
59006;SDS011;44792;52.760;6.726;2023-09-30T10:35:16;11.52;;;5.45;;
59006;SDS011;44792;52.760;6.726;2023-09-30T10:37:43;12.73;;;6.10;;
59006;SDS011;44792;52.760;6.726;2023-09-30T10:40:09;16.13;;;6.57;;
59006;SDS011;44792;52.760;6.726;2023-09-30T10:42:51;17.27;;;6.80;;
59006;SDS011;44792;52.760;6.726;2023-09-30T10:48:46;13.38;;;6.40;;
59006;SDS011;44792;52.760;6.726;2023-09-30T10:50:53;14.25;;;5.45;;
59006;SDS011;44792;52.760;6.726;2023-09-30T10:53:24;10.73;;;5.05;;
59006;SDS011;44792;52.760;6.726;2023-09-30T10:55:56;10.50;;;4.35;;
59006;SDS011;44792;52.760;6.726;2023-09-30T11:01:25;7.43;;;2.85;;
59006;SDS011;44792;52.760;6.726;2023-09-30T11:03:59;11.60;;;3.20;;
59006;SDS011;44792;52.760;6.726;2023-09-30T11:06:28;9.07;;;2.97;;
59006;SDS011;44792;52.760;6.726;2023-09-30T11:08:55;10.40;;;3.83;;
59006;SDS011;44792;52.760;6.726;2023-09-30T11:11:38;11.55;;;2.95;;
59006;SDS011;44792;52.760;6.726;2023-09-30T11:16:44;13.93;;;3.45;;
59006;SDS011;44792;52.760;6.726;2023-09-30T11:19:10;6.53;;;2.53;;
59006;SDS011;44792;52.760;6.726;2023-09-30T11:21:37;12.30;;;3.38;;
59006;SDS011;44792;52.760;6.726;2023-09-30T11:24:06;11.52;;;3.60;;
59006;SDS011;44792;52.760;6.726;2023-09-30T11:26:33;6.82;;;2.00;;
59006;SDS011;44792;52.760;6.726;2023-09-30T11:29:06;9.30;;;2.53;;
59006;SDS011;44792;52.760;6.726;2023-09-30T11:31:40;7.38;;;2.10;;
59006;SDS011;44792;52.760;6.726;2023-09-30T11:34:06;12.15;;;2.50;;
59006;SDS011;44792;52.760;6.726;2023-09-30T11:36:38;7.82;;;2.40;;
59006;SDS011;44792;52.760;6.726;2023-09-30T11:39:07;7.00;;;2.15;;
59006;SDS011;44792;52.760;6.726;2023-09-30T11:41:38;7.07;;;1.75;;
59006;SDS011;44792;52.760;6.726;2023-09-30T11:44:11;6.05;;;1.42;;
59006;SDS011;44792;52.760;6.726;2023-09-30T11:46:47;7.55;;;2.15;;
59006;SDS011;44792;52.760;6.726;2023-09-30T11:49:33;7.43;;;1.60;;
59006;SDS011;44792;52.760;6.726;2023-09-30T11:52:01;6.95;;;1.65;;
59006;SDS011;44792;52.760;6.726;2023-09-30T11:54:32;7.05;;;1.98;;
59006;SDS011;44792;52.760;6.726;2023-09-30T11:57:12;8.95;;;1.65;;
59006;SDS011;44792;52.760;6.726;2023-09-30T11:59:42;8.48;;;1.50;;
59006;SDS011;44792;52.760;6.726;2023-09-30T12:02:08;9.48;;;1.98;;
59006;SDS011;44792;52.760;6.726;2023-09-30T12:04:35;6.57;;;1.48;;
59006;SDS011;44792;52.760;6.726;2023-09-30T12:07:01;5.22;;;1.27;;
59006;SDS011;44792;52.760;6.726;2023-09-30T12:09:27;12.30;;;2.70;;
59006;SDS011;44792;52.760;6.726;2023-09-30T12:11:55;5.60;;;1.70;;
59006;SDS011;44792;52.760;6.726;2023-09-30T12:14:23;5.20;;;1.70;;
59006;SDS011;44792;52.760;6.726;2023-09-30T12:16:49;9.82;;;1.83;;
59006;SDS011;44792;52.760;6.726;2023-09-30T12:19:19;7.97;;;1.63;;
59006;SDS011;44792;52.760;6.726;2023-09-30T12:21:45;5.95;;;1.80;;
59006;SDS011;44792;52.760;6.726;2023-09-30T12:24:16;6.15;;;1.75;;
59006;SDS011;44792;52.760;6.726;2023-09-30T12:26:48;8.27;;;1.63;;
59006;SDS011;44792;52.760;6.726;2023-09-30T12:29:14;4.90;;;1.40;;
59006;SDS011;44792;52.760;6.726;2023-09-30T12:31:43;6.57;;;1.42;;
59006;SDS011;44792;52.760;6.726;2023-09-30T12:34:09;7.45;;;2.05;;
59006;SDS011;44792;52.760;6.726;2023-09-30T12:36:36;5.38;;;1.67;;
59006;SDS011;44792;52.760;6.726;2023-09-30T12:39:02;7.78;;;1.85;;
59006;SDS011;44792;52.760;6.726;2023-09-30T12:41:36;6.90;;;1.88;;
59006;SDS011;44792;52.760;6.726;2023-09-30T12:44:05;6.63;;;2.08;;
59006;SDS011;44792;52.760;6.726;2023-09-30T12:46:32;10.48;;;2.33;;
59006;SDS011;44792;52.760;6.726;2023-09-30T12:49:01;5.75;;;1.33;;
59006;SDS011;44792;52.760;6.726;2023-09-30T12:51:27;8.10;;;1.70;;
59006;SDS011;44792;52.760;6.726;2023-09-30T12:53:53;5.88;;;1.88;;
59006;SDS011;44792;52.760;6.726;2023-09-30T12:56:19;3.50;;;1.73;;
59006;SDS011;44792;52.760;6.726;2023-09-30T12:58:44;6.63;;;1.33;;
59006;SDS011;44792;52.760;6.726;2023-09-30T13:01:10;4.55;;;1.40;;
59006;SDS011;44792;52.760;6.726;2023-09-30T13:03:36;4.38;;;1.67;;
59006;SDS011;44792;52.760;6.726;2023-09-30T13:06:02;7.32;;;1.52;;
59006;SDS011;44792;52.760;6.726;2023-09-30T13:08:28;6.53;;;1.52;;
59006;SDS011;44792;52.760;6.726;2023-09-30T13:10:59;6.40;;;1.23;;
59006;SDS011;44792;52.760;6.726;2023-09-30T13:13:27;8.23;;;1.67;;
59006;SDS011;44792;52.760;6.726;2023-09-30T13:15:55;5.35;;;1.70;;
59006;SDS011;44792;52.760;6.726;2023-09-30T13:18:22;11.13;;;1.60;;
59006;SDS011;44792;52.760;6.726;2023-09-30T13:20:48;3.58;;;1.55;;
59006;SDS011;44792;52.760;6.726;2023-09-30T13:23:14;5.10;;;1.52;;
59006;SDS011;44792;52.760;6.726;2023-09-30T13:25:39;4.20;;;1.20;;
59006;SDS011;44792;52.760;6.726;2023-09-30T13:28:05;4.38;;;1.55;;
59006;SDS011;44792;52.760;6.726;2023-09-30T13:30:31;8.35;;;1.85;;
59006;SDS011;44792;52.760;6.726;2023-09-30T13:32:57;7.57;;;1.52;;
59006;SDS011;44792;52.760;6.726;2023-09-30T13:35:23;4.07;;;1.38;;
59006;SDS011;44792;52.760;6.726;2023-09-30T13:37:48;3.58;;;1.13;;
59006;SDS011;44792;52.760;6.726;2023-09-30T13:40:14;6.68;;;1.58;;
59006;SDS011;44792;52.760;6.726;2023-09-30T13:42:40;6.55;;;1.70;;
59006;SDS011;44792;52.760;6.726;2023-09-30T13:45:07;4.78;;;1.58;;
59006;SDS011;44792;52.760;6.726;2023-09-30T13:47:33;5.32;;;1.40;;
59006;SDS011;44792;52.760;6.726;2023-09-30T13:50:00;5.32;;;1.50;;
59006;SDS011;44792;52.760;6.726;2023-09-30T13:52:26;7.90;;;1.98;;
59006;SDS011;44792;52.760;6.726;2023-09-30T13:54:52;4.85;;;1.50;;
59006;SDS011;44792;52.760;6.726;2023-09-30T13:57:17;4.20;;;1.70;;
59006;SDS011;44792;52.760;6.726;2023-09-30T13:59:43;6.40;;;1.60;;
59006;SDS011;44792;52.760;6.726;2023-09-30T14:02:09;5.80;;;1.65;;
59006;SDS011;44792;52.760;6.726;2023-09-30T14:04:34;8.05;;;1.83;;
59006;SDS011;44792;52.760;6.726;2023-09-30T14:07:03;5.20;;;1.40;;
59006;SDS011;44792;52.760;6.726;2023-09-30T14:09:30;6.30;;;1.45;;
59006;SDS011;44792;52.760;6.726;2023-09-30T14:11:56;6.15;;;1.95;;
59006;SDS011;44792;52.760;6.726;2023-09-30T14:14:24;13.13;;;2.13;;
59006;SDS011;44792;52.760;6.726;2023-09-30T14:16:50;6.30;;;1.67;;
59006;SDS011;44792;52.760;6.726;2023-09-30T14:19:16;3.75;;;1.83;;
59006;SDS011;44792;52.760;6.726;2023-09-30T14:21:41;8.52;;;2.38;;
59006;SDS011;44792;52.760;6.726;2023-09-30T14:24:07;4.35;;;1.45;;
59006;SDS011;44792;52.760;6.726;2023-09-30T14:26:33;4.50;;;1.40;;
59006;SDS011;44792;52.760;6.726;2023-09-30T14:28:59;5.38;;;1.45;;
59006;SDS011;44792;52.760;6.726;2023-09-30T14:31:25;8.07;;;1.58;;
59006;SDS011;44792;52.760;6.726;2023-09-30T14:33:51;5.45;;;1.85;;
59006;SDS011;44792;52.760;6.726;2023-09-30T14:36:18;8.52;;;2.00;;
59006;SDS011;44792;52.760;6.726;2023-09-30T14:38:44;7.30;;;2.00;;
59006;SDS011;44792;52.760;6.726;2023-09-30T14:41:10;10.27;;;1.98;;
59006;SDS011;44792;52.760;6.726;2023-09-30T14:43:37;5.45;;;1.83;;
59006;SDS011;44792;52.760;6.726;2023-09-30T14:46:04;11.32;;;1.63;;
59006;SDS011;44792;52.760;6.726;2023-09-30T14:48:30;7.90;;;1.83;;
59006;SDS011;44792;52.760;6.726;2023-09-30T14:50:56;10.90;;;1.92;;
59006;SDS011;44792;52.760;6.726;2023-09-30T14:53:22;7.07;;;1.88;;
59006;SDS011;44792;52.760;6.726;2023-09-30T14:55:48;5.00;;;1.88;;
59006;SDS011;44792;52.760;6.726;2023-09-30T14:58:14;7.40;;;1.85;;
59006;SDS011;44792;52.760;6.726;2023-09-30T15:00:40;6.05;;;1.52;;
59006;SDS011;44792;52.760;6.726;2023-09-30T15:03:06;4.53;;;1.50;;
59006;SDS011;44792;52.760;6.726;2023-09-30T15:05:32;10.90;;;1.67;;
59006;SDS011;44792;52.760;6.726;2023-09-30T15:07:58;8.85;;;1.73;;